Geokinetics Inc (NASDAQOTH:GEOKQ)

CAPS Rating: No stars

The Company is a global provider of seismic data acquisition services in land, marsh and swamp and shallow water environments to the oil and natural gas industry.

Results 1 - 99 of 119 : 1 2 Next »
Top
Pick
Member Name Member
Rating
Start
Date
Call Time
Frame
Start
Price
Stock
Gain
Index
Gain
Score Commentary
artcorvelay < 20 5/14/2012 Outperform 1Y $1.32 -99.43% +55.85% -155.28 0 Comment
MoneyPlusSport < 20 1/25/2012 Underperform 5Y $2.00 -99.62% +59.46% +159.09 0 Comment
jdparksASI < 20 9/7/2011 Outperform 5Y $4.60 -99.84% +74.40% -174.23 0 Comment
GreenHillFarAway 29.03 8/22/2011 Outperform 5Y $3.99 -99.81% +84.96% -184.77 0 Comment
Rehydrogenated 33.14 3/29/2011 Outperform 5Y $8.68 -99.91% +59.64% -159.56 0 Comment
2011Fool 99.26 3/25/2011 Outperform NS $8.99 -99.92% +59.49% -159.40 0 Comment
LEGMAKER < 20 2/28/2011 Outperform 5Y $10.59 -99.93% +57.59% -157.52 0 Comment
hcve < 20 1/12/2011 Outperform 3W $9.41 -99.92% +63.42% -163.34 0 Comment
MagicMaggie < 20 12/7/2010 Outperform 5Y $9.35 -99.92% +68.88% -168.80 0 Comment
OberHund < 20 12/6/2010 Outperform 5Y $9.29 -99.92% +70.68% -170.60 0 Comment
tiger6667 < 20 12/1/2010 Outperform 5Y $8.51 -99.91% +74.13% -174.05 0 Comment
bullinnature 93.81 11/9/2009 11/8/2010 Outperform 3Y $12.72 -99.94% +93.90% -193.84 0 Comment
cletedinero < 20 10/18/2010 Outperform 5Y $7.31 -99.90% +77.23% -177.13 0 Comment
brilin 60.19 10/4/2010 Outperform 5Y $6.00 -99.88% +83.01% -182.89 0 Comment
smallandmidcap 98.50 8/10/2010 Underperform 5Y $4.51 -99.83% +86.83% +186.67 0 Comment
roth450 33.46 7/20/2010 Outperform NS $3.99 -99.81% +97.70% -197.52 0 Comment
EffinObama < 20 7/19/2010 Outperform 3Y $4.06 -99.82% +96.31% -196.13 0 Comment
thisyearslosers < 20 6/29/2010 Outperform 5Y $4.12 -99.82% +100.03% -199.85 0 Comment
startunderfive < 20 6/28/2010 Outperform 5Y $4.49 -99.83% +94.38% -194.21 0 Comment
institutionsdown < 20 6/22/2010 Outperform 5Y $4.88 -99.85% +87.87% -187.72 0 Comment
obsoleteaccount < 20 6/21/2010 Outperform 5Y $4.91 -99.85% +88.36% -188.20 0 Comment
jroren 99.37 6/21/2010 Underperform 3M $5.36 -99.86% +85.03% +184.89 0 Comment
iddqkfyou < 20 5/11/2010 Outperform 5Y $6.30 -99.88% +81.90% -181.78 1 Comment
asitka 28.10 5/3/2010 Outperform 1Y $8.74 -99.91% +75.33% -175.25 0 Comment
Genomac 39.85 4/26/2010 Outperform 5Y $9.58 -99.92% +71.78% -171.70 0 Comment
HotDdogv2 < 20 4/26/2010 Outperform 5Y $9.58 -99.92% +71.78% -171.70 0 Comment
aliuce 30.78 4/23/2010 Outperform NS $9.53 -99.92% +72.58% -172.51 0 Comment
iamvoltron 24.69 4/22/2010 Outperform 5Y $8.47 -99.91% +74.70% -174.61 0 Comment
markantonythe3rd 31.50 4/20/2010 Outperform 5Y $8.21 -99.91% +73.56% -173.47 0 Comment
dashark44 91.97 4/19/2010 Outperform 5Y $7.81 -99.90% +76.22% -176.12 0 Comment
Powderiver < 20 4/12/2010 Outperform 5Y $7.94 -99.91% +74.82% -174.72 0 Comment
manjux < 20 4/1/2010 Underperform 3M $7.32 -99.90% +77.64% +177.53 0 Comment
blue2fire < 20 3/22/2010 Outperform 5Y $7.39 -99.90% +81.52% -181.42 0 Comment
StThomasMoreEsq2 87.54 12/29/2009 2/19/2010 Outperform 3M $9.89 -99.92% +85.69% -185.62 0 Comment
HasOrHasNot 28.83 1/28/2010 Outperform 3Y $10.04 -99.93% +89.92% -189.84 0 Comment
FreeMortal 29.23 1/20/2010 Outperform 5Y $10.34 -99.93% +84.33% -184.26 0 Comment
StGiannaMolla < 20 1/11/2010 Outperform 5Y $10.53 -99.93% +82.39% -182.32 0 Comment
Clockworker < 20 1/6/2010 Outperform 5Y $9.84 -99.92% +84.27% -184.19 0 Comment
TMFPlatoish 96.79 12/16/2009 Outperform 5Y $9.27 -99.92% +86.93% -186.85 0 Comment
chinneymartin 72.42 11/13/2009 Outperform 5Y $13.20 -99.94% +90.42% -190.36 0 Comment
wkcgx2 < 20 11/9/2009 Outperform 5Y $13.18 -99.94% +92.85% -192.79 0 Comment
outperformONLY < 20 10/19/2009 Outperform 5Y $19.49 -99.96% +91.90% -191.87 0 Comment
pennycruncher 44.85 10/19/2009 Outperform 5Y $19.49 -99.96% +91.90% -191.87 0 Comment
GIGManager < 20 10/8/2009 Outperform 3Y $19.24 -99.96% +96.04% -196.00 0 Comment
TotalStrange 93.58 8/12/2009 Outperform 1Y $14.58 -99.95% +108.75% -208.69 0 Comment
jddubya < 20 6/5/2009 Outperform 5Y $14.81 -99.95% +123.10% -223.05 0 Comment
TXmaverick < 20 6/2/2009 Underperform 3W $14.00 -99.95% +122.72% +222.66 1 Comment
marcet 71.78 5/28/2009 Outperform 5Y $13.26 -99.94% +132.65% -232.59 0 Comment
cwimbish 47.05 5/28/2009 Outperform 5Y $11.46 -99.93% +133.80% -233.74 1 Comment
theMovement 78.53 5/21/2009 Outperform 1Y $9.86 -99.92% +136.41% -236.33 0 Comment
unstoppablepeon < 20 10/27/2008 Underperform NS $6.01 -99.88% +148.27% +248.15 1 Comment
moonleg 24.05 10/22/2008 Underperform 1Y $6.45 -99.88% +130.28% +230.16 0 Comment
Chiownknee 67.55 10/20/2008 Outperform 5Y $8.28 -99.91% +122.86% -222.76 0 Comment
IWalker182 20.93 10/17/2008 Outperform NS $8.44 -99.91% +125.72% -225.63 0 Comment
wakoma < 20 10/8/2008 Outperform NS $12.80 -99.94% +120.19% -220.13 1 Comment
istilldontcare 90.69 9/18/2008 Outperform 5Y $17.34 -99.96% +84.66% -184.62 0 Comment
unotsomuch < 20 8/20/2008 Outperform 3Y $19.10 -99.96% +69.56% -169.52 0 Comment
ejtrains 52.45 8/11/2008 Outperform NS $20.00 -99.96% +66.80% -166.76 0 Comment
joetheboss 39.81 6/11/2008 Outperform 3Y $19.57 -99.96% +60.70% -160.66 1 Comment
Sqwii < 20 6/10/2008 Outperform 1Y $20.32 -99.96% +59.21% -159.18 1 Comment
floridabull33 59.64 5/22/2008 Outperform 3M $20.64 -99.96% +55.76% -155.73 0 Comment
GDragonsDad 62.53 5/7/2008 Outperform NS $19.04 -99.96% +53.85% -153.81 0 Comment
TexasGeoTech < 20 4/30/2008 Outperform 3M $19.04 -99.96% +55.18% -155.14 0 Comment
JCASS714 55.13 4/29/2008 Outperform 5Y $18.82 -99.96% +55.79% -155.75 0 Comment
tuckerjack < 20 4/17/2008 Outperform 5Y $19.60 -99.96% +59.39% -159.35 0 Comment
greengal1 < 20 4/17/2008 Outperform 3Y $19.60 -99.96% +59.39% -159.35 1 Comment
ctnotebo 39.75 4/11/2008 Outperform 3Y $17.56 -99.96% +60.96% -160.92 0 Comment
louisianacoonie 25.62 3/31/2008 Outperform NS $17.95 -99.96% +64.37% -164.33 0 Comment
bengalmomof4 84.02 3/28/2008 Underperform 3M $17.78 -99.96% +63.22% +163.18 0 Comment
chad07gt < 20 3/27/2008 Outperform NS $17.78 -99.96% +63.01% -162.96 0 Comment
MoltenTofu < 20 3/14/2008 Outperform NS $17.34 -99.96% +64.29% -164.25 0 Comment
AgendaPacific 36.21 3/14/2008 Outperform 3Y $17.34 -99.96% +64.29% -164.25 0 Comment
ToeInsider 30.96 3/10/2008 Outperform NS $16.26 -99.95% +68.04% -168.00 0 Comment
altitudeaddict 29.32 2/28/2008 Outperform 5Y $17.94 -99.96% +58.95% -158.91 0 Comment
tritterup 56.98 2/26/2008 Outperform NS $18.36 -99.96% +57.97% -157.93 0 Comment
arindamd < 20 2/26/2008 Outperform 1Y $17.79 -99.96% +58.97% -158.93 1 Comment
dmgchess 62.04 2/20/2008 Outperform 1Y $17.66 -99.96% +62.80% -162.76 0 Comment
aalvarma < 20 2/20/2008 Outperform 1Y $17.66 -99.96% +62.80% -162.76 0 Comment
thetoxman 78.61 2/14/2008 Outperform 1Y $17.31 -99.96% +59.28% -159.24 0 Comment
thatguy99 26.61 2/5/2008 Outperform 5Y $17.79 -99.96% +60.47% -160.43 0 Comment
mopomi 75.45 1/24/2008 Outperform 5Y $18.76 -99.96% +62.57% -162.53 0 Comment
ATWDLimited < 20 1/23/2008 Outperform NS $18.34 -99.96% +68.02% -167.98 0 Comment
financeman101 < 20 1/17/2008 Outperform NS $16.85 -99.96% +63.78% -163.74 0 Comment
evreeland 27.94 1/16/2008 Outperform 1Y $16.25 -99.95% +59.27% -159.22 0 Comment
Obyss 55.68 12/31/2007 Outperform 3W $19.14 -99.96% +48.30% -148.26 0 Comment
Kenster35OR < 20 12/24/2007 Outperform 1Y $20.20 -99.96% +46.58% -146.54 0 Comment
StockRakedotcom < 20 12/13/2007 Outperform NS $22.40 -99.97% +47.86% -147.82 0 Comment
everything4less 46.50 12/13/2007 Outperform 1Y $22.40 -99.97% +47.86% -147.82 0 Comment
beachlokal < 20 12/12/2007 Outperform 5Y $23.10 -99.97% +46.68% -146.65 0 Comment
WavingSpices < 20 12/5/2007 Outperform NS $22.10 -99.97% +47.92% -147.88 0 Comment
SaltyGenes 40.67 11/27/2007 Outperform 5Y $22.14 -99.97% +54.71% -154.68 0 Comment
apper < 20 11/21/2007 Outperform 5Y $22.58 -99.97% +54.30% -154.27 0 Comment
ProjectJack < 20 11/5/2007 Outperform 1Y $19.90 -99.96% +45.89% -145.86 0 Comment
IntenseSpider 89.42 10/25/2007 Outperform NS $22.86 -99.97% +45.96% -145.93 0 Comment
tv5cents 94.46 10/23/2007 Outperform 5Y $22.00 -99.97% +44.79% -144.75 0 Comment
JR9901 86.13 10/22/2007 Outperform 5Y $21.85 -99.97% +47.31% -147.28 0 Comment
Garranova 89.86 10/22/2007 Outperform NS $21.85 -99.97% +47.31% -147.28 0 Comment
cleveland503 86.95 10/15/2007 Outperform NS $24.60 -99.97% +40.33% -140.30 0 Comment
ATLDARK31 < 20 10/12/2007 Outperform 5Y $24.50 -99.97% +41.06% -141.03 0 Comment
Results 1 - 99 of 119 : 1 2 Next »

Featured Broker Partners


Advertisement